Time;durP1;ratioP1;P1;durP2;ratioP2;P2;SDS_P1;SDS_P2;PMS_P1;PMS_P2;Temp;Humidity;BMP_temperature;BMP_pressure;BME280_temperature;BME280_humidity;BME280_pressure;Samples;Min_cycle;Max_cycle;Signal;HPM_P1;HPM_P2
2022/03/10 00:00:24;;;;;;;20.50;11.38;;;2.80;99.90;;;;;;5123191;22;20052;-80
2022/03/10 00:02:50;;;;;;;22.90;11.00;;;2.80;99.90;;;;;;5126304;22;20494;-80
2022/03/10 00:05:18;;;;;;;20.27;10.85;;;2.80;99.90;;;;;;5135198;22;20052;-80
2022/03/10 00:07:44;;;;;;;19.17;10.68;;;3.70;99.90;;;;;;5107605;22;20058;-80
2022/03/10 00:10:10;;;;;;;20.85;10.82;;;3.80;99.90;;;;;;5100488;28;20051;-79
2022/03/10 00:12:36;;;;;;;18.88;10.90;;;2.80;99.90;;;;;;5106651;22;20135;-80
2022/03/10 00:15:07;;;;;;;22.00;10.93;;;2.70;99.90;;;;;;5097108;28;20471;-79
2022/03/10 00:17:32;;;;;;;18.55;10.00;;;2.70;99.90;;;;;;5099034;28;20046;-80
2022/03/10 00:19:58;;;;;;;17.17;9.63;;;2.70;99.90;;;;;;5099266;28;20063;-79
2022/03/10 00:22:24;;;;;;;20.50;10.88;;;2.50;99.90;;;;;;5082195;28;20111;-80
2022/03/10 00:24:49;;;;;;;20.98;10.43;;;3.20;99.90;;;;;;5082656;28;20075;-80
2022/03/10 00:27:15;;;;;;;19.65;9.55;;;2.50;99.90;;;;;;5086408;28;20078;-80
2022/03/10 00:29:41;;;;;;;17.67;10.43;;;2.60;99.90;;;;;;5103074;28;20189;-80
2022/03/10 00:32:06;;;;;;;19.67;9.85;;;2.60;99.90;;;;;;5085817;28;20044;-80
2022/03/10 00:34:32;;;;;;;17.38;9.43;;;2.60;99.90;;;;;;5102419;28;20048;-80
2022/03/10 00:36:58;;;;;;;18.83;10.13;;;2.50;99.90;;;;;;5102556;28;20425;-80
2022/03/10 00:39:23;;;;;;;17.73;10.02;;;2.60;99.90;;;;;;5120957;28;20389;-80
2022/03/10 00:41:49;;;;;;;22.23;10.80;;;3.00;99.90;;;;;;5085410;28;20089;-80
2022/03/10 00:44:15;;;;;;;19.40;10.88;;;3.20;99.90;;;;;;5104094;22;20048;-79
2022/03/10 00:46:40;;;;;;;17.52;10.02;;;2.60;99.90;;;;;;5102343;28;20402;-80
2022/03/10 00:49:06;;;;;;;19.70;10.07;;;3.70;99.90;;;;;;5120222;28;20065;-79
2022/03/10 00:51:32;;;;;;;19.08;9.90;;;2.50;99.90;;;;;;5119702;28;20043;-80
2022/03/10 00:53:57;;;;;;;19.27;10.10;;;2.50;99.90;;;;;;5102312;28;20042;-80
2022/03/10 00:56:23;;;;;;;21.00;10.25;;;2.40;99.90;;;;;;5102353;28;20130;-80
2022/03/10 00:58:48;;;;;;;20.63;9.15;;;2.40;99.90;;;;;;5102433;28;20043;-80
2022/03/10 01:01:14;;;;;;;19.20;10.32;;;3.70;99.90;;;;;;5119119;28;20065;-80
2022/03/10 01:03:40;;;;;;;20.95;10.05;;;3.20;99.90;;;;;;5102045;28;20035;-79
2022/03/10 01:06:05;;;;;;;18.98;10.02;;;3.00;99.90;;;;;;5101494;28;20077;-80
2022/03/10 01:08:31;;;;;;;21.13;10.35;;;3.30;99.90;;;;;;5101976;28;20505;-79
2022/03/10 01:10:57;;;;;;;20.25;10.05;;;3.10;99.90;;;;;;5102364;28;20097;-79
2022/03/10 01:13:23;;;;;;;20.67;10.68;;;2.90;99.90;;;;;;5102098;28;20051;-80
2022/03/10 01:15:49;;;;;;;22.02;10.85;;;2.40;99.90;;;;;;5118786;28;20035;-80
2022/03/10 01:18:15;;;;;;;20.05;11.20;;;2.30;99.90;;;;;;5118469;28;20549;-79
2022/03/10 01:20:42;;;;;;;17.40;10.02;;;2.20;99.90;;;;;;5101348;28;20135;-80
2022/03/10 01:23:11;;;;;;;17.90;10.00;;;2.70;99.90;;;;;;5101673;28;20047;-80
2022/03/10 01:25:37;;;;;;;22.00;10.77;;;2.60;99.90;;;;;;5109406;22;20047;-80
2022/03/10 01:28:04;;;;;;;22.10;10.15;;;2.20;99.90;;;;;;5108579;22;20047;-79
2022/03/10 01:30:30;;;;;;;21.80;10.60;;;2.20;99.90;;;;;;5125268;22;20055;-80
2022/03/10 01:32:56;;;;;;;18.15;9.90;;;2.10;99.90;;;;;;5101290;28;20044;-80
2022/03/10 01:35:22;;;;;;;18.75;10.10;;;2.10;99.90;;;;;;5100527;28;20134;-79
2022/03/10 01:37:48;;;;;;;19.02;10.45;;;2.50;99.90;;;;;;5116980;28;20044;-80
2022/03/10 01:40:16;;;;;;;19.27;9.48;;;2.10;99.90;;;;;;5108950;22;20123;-79
2022/03/10 01:42:42;;;;;;;18.23;9.88;;;2.50;99.90;;;;;;5100758;28;20044;-80
2022/03/10 01:45:10;;;;;;;17.20;10.23;;;2.70;99.90;;;;;;5101894;28;20044;-80
2022/03/10 01:47:36;;;;;;;17.75;9.45;;;2.10;99.90;;;;;;5101367;28;20031;-80
2022/03/10 01:50:02;;;;;;;17.70;9.60;;;2.10;99.90;;;;;;5115619;22;20066;-80
2022/03/10 01:52:30;;;;;;;19.08;10.18;;;2.20;99.90;;;;;;5108002;22;20456;-80
2022/03/10 01:54:57;;;;;;;18.85;9.38;;;2.10;99.90;;;;;;5115189;22;20178;-79
2022/03/10 01:57:24;;;;;;;18.08;9.77;;;2.10;99.90;;;;;;5084108;28;20043;-80
2022/03/10 01:59:51;;;;;;;19.35;9.48;;;2.00;99.90;;;;;;5098285;22;20080;-79
2022/03/10 02:02:17;;;;;;;21.15;10.13;;;2.10;99.90;;;;;;5100813;28;20130;-80
2022/03/10 02:04:42;;;;;;;18.42;10.05;;;2.00;99.90;;;;;;5108340;22;20075;-80
2022/03/10 02:10:16;;;;;;;19.20;9.93;;;1.90;99.90;;;;;;5117872;28;20052;-80
2022/03/10 02:12:38;;;;;;;19.75;10.05;;;1.90;99.90;;;;;;5124759;22;20121;-80
2022/03/10 02:18:03;;;;;;;21.52;10.38;;;1.80;99.90;;;;;;5130117;22;20051;-79
2022/03/10 02:20:29;;;;;;;18.85;10.38;;;1.80;99.90;;;;;;5063023;28;20056;-80
2022/03/10 02:22:55;;;;;;;18.73;10.25;;;1.70;99.90;;;;;;5096497;22;20043;-79
2022/03/10 02:25:23;;;;;;;20.50;11.18;;;1.70;99.90;;;;;;5123633;27;20102;-79
2022/03/10 02:27:50;;;;;;;20.35;10.50;;;1.70;99.90;;;;;;5123502;27;20046;-79
2022/03/10 02:30:17;;;;;;;18.75;10.20;;;1.70;99.90;;;;;;5123679;27;20041;-79
2022/03/10 02:32:43;;;;;;;21.90;11.73;;;1.70;99.90;;;;;;5122999;27;20078;-80
2022/03/10 02:35:08;;;;;;;19.05;10.38;;;1.70;99.90;;;;;;5140450;27;20049;-80
2022/03/10 02:37:34;;;;;;;18.08;10.00;;;1.60;99.90;;;;;;5135348;27;20041;-80
2022/03/10 02:40:00;;;;;;;22.23;10.48;;;2.00;99.90;;;;;;5139144;27;20061;-80
2022/03/10 02:42:31;;;;;;;20.50;10.63;;;1.60;99.90;;;;;;5126453;22;20496;-80
2022/03/10 02:44:57;;;;;;;21.23;9.73;;;1.60;99.90;;;;;;5078290;28;20113;-80
2022/03/10 02:47:23;;;;;;;20.85;11.13;;;1.60;99.90;;;;;;5102333;22;20047;-81
2022/03/10 02:49:48;;;;;;;20.75;10.90;;;2.20;99.90;;;;;;5118857;22;20056;-79
2022/03/10 02:52:14;;;;;;;21.77;10.40;;;1.60;99.90;;;;;;5100081;22;20081;-80
2022/03/10 02:54:40;;;;;;;19.42;10.70;;;1.70;99.90;;;;;;5079795;28;20074;-80
2022/03/10 02:57:06;;;;;;;19.60;10.60;;;1.60;99.90;;;;;;5103157;22;20052;-80
2022/03/10 02:59:37;;;;;;;20.23;11.52;;;2.80;99.90;;;;;;5079970;28;20097;-80
2022/03/10 03:02:04;;;;;;;21.25;10.70;;;1.60;99.90;;;;;;5119258;22;20082;-80
2022/03/10 03:04:30;;;;;;;20.77;11.50;;;1.50;99.90;;;;;;5104153;22;20039;-80
2022/03/10 03:06:56;;;;;;;21.50;11.32;;;1.50;99.90;;;;;;5099952;28;20130;-79
2022/03/10 03:09:21;;;;;;;22.58;10.98;;;1.40;99.90;;;;;;5115276;22;20079;-79
2022/03/10 03:11:47;;;;;;;19.45;10.95;;;1.40;99.90;;;;;;5116703;22;20065;-80
2022/03/10 03:14:13;;;;;;;21.92;11.02;;;1.40;99.90;;;;;;5111880;28;20055;-80
2022/03/10 03:16:39;;;;;;;22.27;11.73;;;1.60;99.90;;;;;;5121995;28;20043;-79
2022/03/10 03:19:05;;;;;;;20.70;11.52;;;2.20;99.90;;;;;;5108256;22;20138;-79
2022/03/10 03:24:01;;;;;;;19.90;11.32;;;1.30;99.90;;;;;;5109618;22;20073;-79
2022/03/10 03:26:27;;;;;;;21.90;11.40;;;2.00;99.90;;;;;;5082783;28;20051;-80
2022/03/10 03:28:53;;;;;;;22.00;11.65;;;1.30;99.90;;;;;;5082057;28;20067;-80
2022/03/10 03:31:20;;;;;;;20.42;11.50;;;2.20;99.90;;;;;;5089569;22;20545;-79
2022/03/10 03:33:46;;;;;;;21.85;11.95;;;1.30;99.90;;;;;;5081531;28;20051;-79
2022/03/10 03:36:12;;;;;;;21.45;11.63;;;1.20;99.90;;;;;;5090993;22;20043;-80
2022/03/10 03:38:37;;;;;;;22.63;11.63;;;1.10;99.90;;;;;;5107911;22;20047;-80
2022/03/10 03:41:03;;;;;;;20.83;10.82;;;1.20;99.90;;;;;;5081293;28;20134;-79
2022/03/10 03:43:35;;;;;;;23.40;12.13;;;1.20;99.90;;;;;;5113908;22;20047;-79
2022/03/10 03:46:01;;;;;;;20.00;11.18;;;1.20;99.90;;;;;;5103464;22;20061;-79
2022/03/10 03:48:32;;;;;;;19.15;10.77;;;1.20;99.90;;;;;;5105561;22;20044;-80
2022/03/10 03:50:58;;;;;;;22.17;11.27;;;1.10;99.90;;;;;;5099966;27;20470;-79
2022/03/10 03:53:24;;;;;;;20.40;11.00;;;1.10;99.90;;;;;;5114582;22;20071;-80
2022/03/10 03:55:50;;;;;;;23.40;11.18;;;1.10;99.90;;;;;;5118677;22;20055;-80
2022/03/10 03:58:16;;;;;;;23.95;11.40;;;1.40;99.90;;;;;;5122168;27;20039;-79
2022/03/10 04:00:42;;;;;;;21.80;11.02;;;2.00;99.90;;;;;;5127668;22;20041;-80
2022/03/10 04:03:12;;;;;;;19.55;10.48;;;1.10;99.90;;;;;;5113238;22;20103;-79
2022/03/10 04:05:39;;;;;;;19.17;10.38;;;1.10;99.90;;;;;;5125888;22;20050;-80
2022/03/10 04:08:05;;;;;;;20.88;10.98;;;1.00;99.90;;;;;;5113510;22;20052;-81
2022/03/10 04:10:36;;;;;;;24.33;11.30;;;1.10;99.90;;;;;;5106864;22;20055;-81
2022/03/10 04:13:01;;;;;;;19.63;10.57;;;1.10;99.90;;;;;;5064175;28;20055;-81
2022/03/10 04:15:34;;;;;;;21.58;11.23;;;1.10;99.90;;;;;;5133739;22;20406;-81
2022/03/10 04:18:01;;;;;;;20.92;11.00;;;1.10;99.90;;;;;;5086598;22;1116381;-81
2022/03/10 04:20:33;;;;;;;20.95;11.32;;;1.10;99.90;;;;;;5100248;22;20039;-82
2022/03/10 04:22:59;;;;;;;20.75;10.90;;;1.10;99.90;;;;;;5116024;22;20048;-81
2022/03/10 04:25:25;;;;;;;21.52;11.02;;;1.50;99.90;;;;;;5109500;22;20100;-81
2022/03/10 04:27:53;;;;;;;22.60;11.55;;;1.10;99.90;;;;;;5124368;22;20043;-81
2022/03/10 04:30:22;;;;;;;23.23;10.75;;;1.10;99.90;;;;;;5119613;22;20462;-81
2022/03/10 04:32:49;;;;;;;20.40;11.00;;;1.10;99.90;;;;;;5109719;22;20050;-81
2022/03/10 04:35:17;;;;;;;23.35;11.25;;;1.40;99.90;;;;;;5109827;22;20048;-81
2022/03/10 04:37:44;;;;;;;22.00;11.43;;;1.60;99.90;;;;;;5102312;28;20478;-81
2022/03/10 04:40:11;;;;;;;22.73;11.35;;;1.20;99.90;;;;;;5109306;22;20055;-81
2022/03/10 04:42:38;;;;;;;20.25;10.88;;;1.70;99.90;;;;;;5129295;22;20135;-82
2022/03/10 04:45:06;;;;;;;21.30;11.00;;;1.10;99.90;;;;;;5106520;22;20055;-81
2022/03/10 04:47:33;;;;;;;19.13;10.80;;;1.10;99.90;;;;;;5123606;22;20062;-82
2022/03/10 04:49:59;;;;;;;22.33;11.90;;;1.10;99.90;;;;;;5063171;28;20047;-81
2022/03/10 04:52:31;;;;;;;19.42;10.20;;;1.10;99.90;;;;;;5116221;22;20460;-81
2022/03/10 04:54:57;;;;;;;23.15;11.48;;;1.10;99.90;;;;;;5115366;22;20055;-81
2022/03/10 04:57:23;;;;;;;21.67;11.85;;;1.00;99.90;;;;;;5109074;22;20051;-81
2022/03/10 04:59:49;;;;;;;25.90;12.45;;;1.00;99.90;;;;;;5122606;22;20048;-81
2022/03/10 05:02:15;;;;;;;20.92;11.60;;;1.00;99.90;;;;;;5119537;22;20051;-81
2022/03/10 05:04:40;;;;;;;22.73;11.10;;;0.90;99.90;;;;;;5125420;22;20059;-81
2022/03/10 05:07:07;;;;;;;22.80;11.93;;;0.90;99.90;;;;;;5125300;22;20052;-81
2022/03/10 05:09:33;;;;;;;22.63;11.63;;;0.90;99.90;;;;;;5101814;28;20040;-81
2022/03/10 05:11:59;;;;;;;20.40;11.13;;;0.90;99.90;;;;;;5110827;22;20135;-81
2022/03/10 05:14:31;;;;;;;23.48;12.45;;;0.80;99.90;;;;;;5120372;22;20431;-82
2022/03/10 05:16:57;;;;;;;23.23;11.40;;;0.90;99.90;;;;;;5086830;28;20047;-81
2022/03/10 05:19:30;;;;;;;23.83;11.98;;;0.90;99.90;;;;;;5100134;22;20183;-81
2022/03/10 05:21:56;;;;;;;22.85;12.05;;;0.90;99.90;;;;;;5126025;22;20075;-81
2022/03/10 05:24:22;;;;;;;22.38;11.50;;;0.80;99.90;;;;;;5129111;22;20054;-81
2022/03/10 05:26:47;;;;;;;22.40;11.30;;;0.80;99.90;;;;;;5130961;28;20051;-81
2022/03/10 05:29:13;;;;;;;22.60;11.93;;;0.80;99.90;;;;;;5163862;22;20054;-81
2022/03/10 05:31:40;;;;;;;21.55;11.32;;;0.80;99.90;;;;;;5126960;22;20134;-82
2022/03/10 05:34:06;;;;;;;20.30;10.77;;;0.80;99.90;;;;;;5137618;22;20078;-81
2022/03/10 05:36:32;;;;;;;22.27;11.38;;;0.90;99.90;;;;;;5119570;22;20101;-81
2022/03/10 05:38:57;;;;;;;19.15;11.27;;;0.90;99.90;;;;;;5121673;28;20498;-81
2022/03/10 05:41:23;;;;;;;24.38;12.15;;;0.90;99.90;;;;;;5119312;22;20040;-81
2022/03/10 05:43:49;;;;;;;24.02;11.30;;;0.90;99.90;;;;;;5105000;28;20520;-81
2022/03/10 05:46:15;;;;;;;21.35;11.63;;;0.80;99.90;;;;;;5119999;22;20044;-81
2022/03/10 05:48:40;;;;;;;19.00;10.80;;;1.60;99.90;;;;;;5125386;22;20051;-81
2022/03/10 05:51:06;;;;;;;23.35;11.55;;;1.30;99.90;;;;;;5114907;22;20051;-81
2022/03/10 05:53:32;;;;;;;24.70;12.20;;;0.80;99.90;;;;;;5124357;27;20055;-81
2022/03/10 05:55:57;;;;;;;22.90;11.98;;;0.80;99.90;;;;;;5145789;22;20043;-81
2022/03/10 05:58:23;;;;;;;21.25;11.70;;;0.80;99.90;;;;;;5121333;28;20130;-81
2022/03/10 06:00:49;;;;;;;22.23;11.32;;;0.80;99.90;;;;;;5120770;22;20062;-81
2022/03/10 06:03:15;;;;;;;25.20;12.57;;;0.80;99.90;;;;;;5103853;22;20039;-81
2022/03/10 06:05:41;;;;;;;22.63;11.80;;;0.70;99.90;;;;;;5130124;22;20047;-81
2022/03/10 06:08:06;;;;;;;23.77;12.38;;;0.70;99.90;;;;;;5127550;22;21183;-81
2022/03/10 06:12:58;;;;;;;22.92;11.68;;;0.70;99.90;;;;;;5151880;22;20054;-81
2022/03/10 06:15:23;;;;;;;25.25;11.85;;;0.70;99.90;;;;;;5123997;22;20055;-81
2022/03/10 06:17:49;;;;;;;22.13;12.10;;;1.10;99.90;;;;;;5172236;22;20025;-81
2022/03/10 06:20:15;;;;;;;23.13;11.60;;;0.70;99.90;;;;;;5086665;28;20058;-81
2022/03/10 06:22:41;;;;;;;24.38;12.63;;;0.70;99.90;;;;;;5133050;22;20063;-81
2022/03/10 06:25:09;;;;;;;23.98;12.10;;;1.00;99.90;;;;;;5124716;22;20048;-81
2022/03/10 06:27:35;;;;;;;29.23;12.18;;;0.70;99.90;;;;;;5118335;22;20069;-81
2022/03/10 06:30:02;;;;;;;25.77;12.10;;;0.70;99.90;;;;;;5104861;28;20105;-81
2022/03/10 06:32:34;;;;;;;26.85;12.38;;;0.70;99.90;;;;;;5117345;22;20069;-82
2022/03/10 06:35:00;;;;;;;22.88;12.15;;;0.80;99.90;;;;;;5065777;22;20054;-81
2022/03/10 06:37:32;;;;;;;21.65;11.60;;;0.80;99.90;;;;;;5095698;22;20040;-81
2022/03/10 06:39:58;;;;;;;24.13;11.60;;;0.80;99.90;;;;;;5117425;22;20039;-81
2022/03/10 06:42:24;;;;;;;23.40;11.20;;;0.90;99.90;;;;;;5103330;22;20081;-81
2022/03/10 06:44:50;;;;;;;24.45;11.57;;;0.90;99.90;;;;;;5100619;22;20078;-82
2022/03/10 06:47:16;;;;;;;25.98;11.32;;;1.00;99.90;;;;;;5096022;22;20057;-82
2022/03/10 06:49:42;;;;;;;21.08;11.15;;;1.20;99.90;;;;;;5093323;22;20134;-82
2022/03/10 06:52:08;;;;;;;22.73;11.48;;;1.10;99.90;;;;;;5116250;22;20044;-82
2022/03/10 06:54:35;;;;;;;22.77;11.52;;;1.10;99.90;;;;;;5097118;22;20056;-82
2022/03/10 06:57:00;;;;;;;24.30;11.57;;;1.20;99.90;;;;;;5084195;28;20074;-82
2022/03/10 06:59:26;;;;;;;20.52;11.68;;;1.20;99.90;;;;;;5100772;28;20428;-82
2022/03/10 07:01:52;;;;;;;23.42;12.07;;;1.30;99.90;;;;;;5083967;28;20489;-82
2022/03/10 07:04:17;;;;;;;21.50;11.75;;;1.30;99.90;;;;;;5084358;28;20051;-82
2022/03/10 07:06:43;;;;;;;27.65;12.43;;;1.40;99.90;;;;;;5100613;28;20039;-82
2022/03/10 07:09:09;;;;;;;23.05;11.50;;;1.40;99.90;;;;;;5102393;28;20047;-82
2022/03/10 07:11:34;;;;;;;20.45;10.88;;;1.50;99.90;;;;;;5083523;28;20036;-82
2022/03/10 07:14:00;;;;;;;22.27;10.93;;;2.10;99.90;;;;;;5100678;28;20513;-82
2022/03/10 07:16:25;;;;;;;25.88;11.73;;;1.70;99.90;;;;;;5100544;28;20437;-83
2022/03/10 07:18:51;;;;;;;23.40;11.25;;;1.70;99.90;;;;;;5100238;28;20036;-83
2022/03/10 07:21:18;;;;;;;22.02;11.50;;;1.80;99.90;;;;;;5099794;28;20090;-83
2022/03/10 07:23:44;;;;;;;25.63;11.75;;;1.80;99.90;;;;;;5100481;28;20103;-83
2022/03/10 07:26:10;;;;;;;21.20;11.60;;;1.90;99.90;;;;;;5101055;28;20071;-83
2022/03/10 07:28:36;;;;;;;31.27;11.57;;;2.00;99.90;;;;;;5101889;28;20173;-83
2022/03/10 07:31:02;;;;;;;20.85;11.73;;;2.10;99.90;;;;;;5102483;28;20063;-82
2022/03/10 07:33:28;;;;;;;19.38;10.50;;;2.20;99.90;;;;;;5100089;28;20051;-83
2022/03/10 07:35:53;;;;;;;20.75;11.45;;;2.20;99.90;;;;;;5080980;28;20047;-83
2022/03/10 07:38:19;;;;;;;23.35;11.75;;;2.40;99.90;;;;;;5099900;28;20127;-83
2022/03/10 07:40:45;;;;;;;27.00;11.68;;;2.40;99.90;;;;;;5082721;28;20478;-82
2022/03/10 07:43:10;;;;;;;23.38;11.38;;;2.50;99.90;;;;;;5083588;28;20054;-83
2022/03/10 07:45:36;;;;;;;20.98;11.65;;;2.60;99.90;;;;;;5083002;28;20066;-82
2022/03/10 07:48:02;;;;;;;24.73;11.77;;;2.60;99.90;;;;;;5083073;28;20043;-82
2022/03/10 07:50:28;;;;;;;20.50;10.93;;;2.80;99.90;;;;;;5083404;28;20036;-83
2022/03/10 07:52:53;;;;;;;22.20;11.25;;;3.50;99.90;;;;;;5099607;28;20032;-82
2022/03/10 07:55:19;;;;;;;24.85;12.00;;;2.90;99.90;;;;;;5099160;28;20083;-83
2022/03/10 07:57:45;;;;;;;25.58;12.05;;;3.10;99.90;;;;;;5101283;28;20052;-82
2022/03/10 08:00:11;;;;;;;26.17;12.65;;;3.20;99.90;;;;;;5101467;28;20055;-83
2022/03/10 08:02:37;;;;;;;22.35;11.38;;;3.30;99.90;;;;;;5099488;28;20379;-83
2022/03/10 08:05:04;;;;;;;23.13;11.57;;;3.40;99.90;;;;;;5099487;28;20044;-83
2022/03/10 08:07:32;;;;;;;21.73;11.93;;;3.50;99.90;;;;;;5084566;28;20417;-83
2022/03/10 08:09:59;;;;;;;22.20;11.38;;;3.80;99.90;;;;;;5101060;28;20475;-82
2022/03/10 08:12:30;;;;;;;22.05;11.90;;;3.80;99.90;;;;;;5099983;28;20063;-84
2022/03/10 08:14:56;;;;;;;23.65;11.60;;;3.90;99.90;;;;;;5111105;22;20044;-83
2022/03/10 08:17:22;;;;;;;19.30;10.73;;;4.00;99.90;;;;;;5109206;28;20048;-82
2022/03/10 08:19:48;;;;;;;23.48;12.07;;;4.20;99.90;;;;;;5093179;28;20043;-83
2022/03/10 08:22:17;;;;;;;20.10;11.40;;;4.30;99.90;;;;;;5106816;28;20048;-83
2022/03/10 08:24:43;;;;;;;21.63;12.00;;;4.50;99.90;;;;;;5104538;28;20474;-83
2022/03/10 08:27:09;;;;;;;25.23;11.70;;;4.60;99.90;;;;;;5104147;28;20125;-83
2022/03/10 08:29:35;;;;;;;22.55;11.60;;;4.70;99.90;;;;;;5123428;28;20036;-83
2022/03/10 08:32:00;;;;;;;24.05;12.10;;;4.90;99.90;;;;;;5087239;28;20054;-82
2022/03/10 08:34:26;;;;;;;21.90;11.82;;;5.00;99.90;;;;;;5087323;28;20067;-83
2022/03/10 08:36:52;;;;;;;25.85;12.25;;;5.20;99.90;;;;;;5104458;28;20047;-83
2022/03/10 08:39:18;;;;;;;21.02;12.23;;;5.30;99.90;;;;;;5104409;28;20043;-83
2022/03/10 08:41:44;;;;;;;24.25;12.82;;;5.90;99.90;;;;;;5122380;28;20493;-83
2022/03/10 08:44:13;;;;;;;24.08;12.27;;;5.60;99.90;;;;;;5102850;28;20048;-82
2022/03/10 08:46:39;;;;;;;20.65;12.38;;;5.90;99.90;;;;;;5115940;22;20091;-83
2022/03/10 08:49:05;;;;;;;21.88;11.98;;;5.90;99.90;;;;;;5106317;22;20043;-82
2022/03/10 08:51:34;;;;;;;23.45;12.32;;;6.00;99.90;;;;;;5108352;22;20052;31
2022/03/10 08:53:59;;;;;;;21.50;11.70;;;6.20;99.90;;;;;;5087718;28;20044;-83
2022/03/10 08:56:25;;;;;;;21.00;12.00;;;6.80;99.90;;;;;;5094123;22;20522;-83
2022/03/10 08:58:51;;;;;;;21.35;11.55;;;6.70;99.90;;;;;;5086138;28;20071;-82
2022/03/10 09:01:19;;;;;;;21.08;11.70;;;7.10;99.90;;;;;;5104031;22;20048;-82
2022/03/10 09:03:45;;;;;;;24.60;12.05;;;6.80;99.90;;;;;;5095775;22;20052;-83
2022/03/10 09:06:12;;;;;;;21.45;11.93;;;7.00;99.90;;;;;;5109982;22;20186;-82
2022/03/10 09:08:38;;;;;;;24.50;12.40;;;7.10;99.90;;;;;;5100517;22;20080;-83
2022/03/10 09:11:04;;;;;;;23.48;12.32;;;8.00;99.90;;;;;;5091139;22;20049;-82
2022/03/10 09:13:37;;;;;;;20.20;11.57;;;7.40;99.90;;;;;;5089614;22;20052;-83
2022/03/10 09:16:06;;;;;;;22.02;12.40;;;8.30;99.90;;;;;;5119950;22;20082;-83
2022/03/10 09:18:32;;;;;;;22.77;12.27;;;7.60;99.90;;;;;;5098040;22;20097;-83
2022/03/10 09:20:57;;;;;;;19.58;12.23;;;7.90;99.90;;;;;;5095864;22;20048;-83
2022/03/10 09:23:23;;;;;;;24.48;11.60;;;8.10;99.90;;;;;;5100843;22;20043;-83
2022/03/10 09:25:49;;;;;;;23.15;12.10;;;8.70;99.90;;;;;;5124382;28;20048;-83
2022/03/10 09:28:14;;;;;;;22.88;12.65;;;8.10;99.90;;;;;;5105631;28;20048;-82
2022/03/10 09:30:40;;;;;;;23.55;12.07;;;8.20;99.90;;;;;;5111098;22;20044;-82
2022/03/10 09:33:06;;;;;;;20.65;11.27;;;8.80;99.90;;;;;;5101934;22;20074;-83
2022/03/10 09:35:31;;;;;;;24.67;12.77;;;8.60;99.90;;;;;;5099842;22;20078;-83
2022/03/10 09:37:57;;;;;;;23.73;12.98;;;8.80;99.90;;;;;;5099757;22;20050;-83
2022/03/10 09:40:23;;;;;;;20.05;11.50;;;8.70;99.90;;;;;;5099590;22;20143;-83
2022/03/10 09:42:49;;;;;;;20.77;11.95;;;8.90;99.90;;;;;;5092932;22;20529;-82
2022/03/10 09:45:18;;;;;;;23.33;12.43;;;9.00;99.90;;;;;;5092564;22;20485;-82
2022/03/10 09:47:44;;;;;;;21.20;11.80;;;9.10;99.60;;;;;;5101021;22;20052;-83
2022/03/10 09:50:13;;;;;;;22.20;12.55;;;9.30;99.90;;;;;;5092411;22;20056;-83
2022/03/10 09:52:43;;;;;;;21.45;11.68;;;9.30;99.90;;;;;;5099961;22;20080;-83
2022/03/10 09:55:10;;;;;;;23.85;12.43;;;9.50;99.60;;;;;;5098974;22;20047;-83
2022/03/10 09:57:43;;;;;;;23.55;12.98;;;9.80;99.90;;;;;;5102126;22;20052;-83
2022/03/10 10:00:12;;;;;;;21.80;12.35;;;10.30;99.90;;;;;;5099252;22;20048;-82
2022/03/10 10:02:40;;;;;;;22.60;12.30;;;9.90;99.90;;;;;;5111682;22;20059;-82
2022/03/10 10:05:24;;;;;;;22.08;11.90;;;10.40;99.90;;;;;;5094975;22;20044;-82
2022/03/10 10:08:14;;;;;;;20.30;11.95;;;10.00;94.90;;;;;;5113132;22;20784;-82
2022/03/10 10:10:49;;;;;;;23.05;11.88;;;10.10;94.00;;;;;;5109831;22;20051;-82
2022/03/10 10:13:25;;;;;;;21.20;12.20;;;10.30;96.50;;;;;;5099280;22;20055;-82
2022/03/10 10:15:59;;;;;;;22.73;12.27;;;10.50;95.80;;;;;;5118561;22;20075;-82
2022/03/10 10:18:26;;;;;;;24.70;12.68;;;11.00;97.60;;;;;;5107820;22;20055;-83
2022/03/10 10:20:53;;;;;;;23.65;13.00;;;10.70;97.50;;;;;;5102527;22;20083;-82
2022/03/10 10:23:27;;;;;;;20.67;12.27;;;10.80;95.80;;;;;;5088978;28;20054;-82
2022/03/10 10:26:01;;;;;;;20.90;11.82;;;10.50;94.00;;;;;;5103044;22;20047;-82
2022/03/10 10:28:40;;;;;;;21.92;12.38;;;10.80;95.00;;;;;;5120545;22;20524;-82
2022/03/10 10:31:13;;;;;;;19.75;12.32;;;11.00;93.50;;;;;;5150612;22;20051;-82
2022/03/10 10:33:41;;;;;;;20.20;11.88;;;11.20;93.60;;;;;;5125666;27;20107;-82
2022/03/10 10:36:27;;;;;;;21.63;12.30;;;11.80;95.30;;;;;;5133413;22;20138;-82
2022/03/10 10:39:08;;;;;;;24.48;12.35;;;11.10;93.60;;;;;;5158142;22;20068;-82
2022/03/10 10:41:35;;;;;;;19.10;11.68;;;11.20;94.70;;;;;;5105746;22;20055;-82
2022/03/10 10:44:06;;;;;;;22.08;12.95;;;11.60;94.20;;;;;;5086028;28;20071;-82
2022/03/10 10:46:48;;;;;;;22.65;12.75;;;11.70;93.90;;;;;;5101654;22;20076;-83
2022/03/10 10:49:19;;;;;;;21.73;12.40;;;11.70;92.50;;;;;;5086451;28;20052;-82
2022/03/10 10:51:55;;;;;;;21.30;13.10;;;11.80;93.40;;;;;;5087900;28;20044;-82
2022/03/10 10:54:25;;;;;;;22.10;13.40;;;12.00;92.30;;;;;;5092698;22;20499;-83
2022/03/10 10:57:01;;;;;;;22.08;12.93;;;12.10;92.50;;;;;;5085065;28;20048;-82
2022/03/10 10:59:35;;;;;;;22.50;13.75;;;12.30;92.20;;;;;;5102294;28;20051;-82
2022/03/10 11:02:12;;;;;;;22.73;12.98;;;12.40;90.20;;;;;;5084514;28;20114;-82
2022/03/10 11:04:59;;;;;;;24.13;12.90;;;12.60;90.50;;;;;;5098404;22;20082;-83
2022/03/10 11:09:54;;;;;;;22.70;13.55;;;12.80;90.60;;;;;;5061760;28;20062;-82
2022/03/10 11:12:20;;;;;;;24.70;13.13;;;12.90;88.50;;;;;;5090046;22;20066;-82
2022/03/10 11:14:47;;;;;;;22.38;12.77;;;13.10;88.10;;;;;;5090947;22;20056;-82
2022/03/10 11:17:15;;;;;;;22.52;13.57;;;13.10;87.30;;;;;;5084195;22;20063;-82
2022/03/10 11:19:46;;;;;;;22.02;12.70;;;13.30;87.70;;;;;;5071543;22;20115;-82
2022/03/10 11:22:40;;;;;;;23.88;13.27;;;14.00;87.40;;;;;;5117535;22;20146;-82
2022/03/10 11:25:27;;;;;;;23.55;14.20;;;13.60;84.00;;;;;;5116751;22;20312;-82
2022/03/10 11:27:56;;;;;;;22.23;13.20;;;13.60;82.60;;;;;;5135819;22;20051;-82
2022/03/10 11:30:24;;;;;;;21.80;13.35;;;13.40;82.80;;;;;;5112243;22;20116;-82
2022/03/10 11:33:05;;;;;;;23.67;13.50;;;13.30;84.50;;;;;;5111710;22;20063;-83
2022/03/10 11:35:34;;;;;;;20.95;12.73;;;13.20;81.40;;;;;;5128306;22;20047;31
2022/03/10 11:38:00;;;;;;;25.98;14.00;;;13.30;85.40;;;;;;5124105;22;20039;-82
2022/03/10 11:41:00;;;;;;;23.23;13.48;;;13.30;84.60;;;;;;5111128;22;20043;-82
2022/03/10 11:43:25;;;;;;;24.25;13.52;;;13.60;81.80;;;;;;5111430;22;20062;-83
2022/03/10 11:45:51;;;;;;;23.48;13.85;;;13.80;84.30;;;;;;5119016;28;20044;-83
2022/03/10 11:48:35;;;;;;;26.10;14.48;;;14.00;82.60;;;;;;5118256;22;20051;-83
2022/03/10 11:51:09;;;;;;;23.70;13.25;;;14.10;76.50;;;;;;5109470;22;20054;-82
2022/03/10 11:54:05;;;;;;;23.40;13.93;;;14.10;75.00;;;;;;5091159;22;20115;-83
2022/03/10 11:56:44;;;;;;;24.88;14.20;;;14.20;73.80;;;;;;5116495;22;20508;-82
2022/03/10 11:59:26;;;;;;;26.40;14.05;;;14.50;74.30;;;;;;5142635;22;20100;-82
2022/03/10 12:01:54;;;;;;;22.88;13.27;;;14.60;72.60;;;;;;5112794;22;20157;-82
2022/03/10 12:04:23;;;;;;;22.70;13.43;;;15.00;74.40;;;;;;5113824;22;20054;-82
2022/03/10 12:06:58;;;;;;;25.70;14.75;;;14.70;73.60;;;;;;5118805;22;20023;-82
2022/03/10 12:09:33;;;;;;;25.58;14.43;;;14.80;72.70;;;;;;5105281;22;20096;-82
2022/03/10 12:12:27;;;;;;;21.67;13.35;;;15.00;72.70;;;;;;5110415;22;20427;-82
2022/03/10 12:14:56;;;;;;;24.85;13.85;;;15.00;68.60;;;;;;5119792;22;20025;-82
2022/03/10 12:17:45;;;;;;;22.80;13.93;;;15.20;71.70;;;;;;5121283;22;20054;-82
2022/03/10 12:20:24;;;;;;;22.95;13.75;;;15.20;67.60;;;;;;5116966;22;20059;-82
2022/03/10 12:23:03;;;;;;;25.33;14.10;;;15.30;69.60;;;;;;5125997;22;20093;-82
2022/03/10 12:25:30;;;;;;;24.10;13.82;;;15.40;67.30;;;;;;5109440;27;20031;-83
2022/03/10 12:27:57;;;;;;;23.25;13.52;;;15.60;70.30;;;;;;5110554;27;20068;-82
2022/03/10 12:30:25;;;;;;;22.20;13.18;;;15.60;69.50;;;;;;5114847;22;20439;-82
2022/03/10 12:32:53;;;;;;;25.73;14.07;;;15.70;68.90;;;;;;5114266;22;20138;-82
2022/03/10 12:35:22;;;;;;;26.27;13.77;;;15.80;68.30;;;;;;5116474;22;20047;-82
2022/03/10 12:37:49;;;;;;;23.00;13.88;;;15.90;67.40;;;;;;5104280;28;20055;-84
2022/03/10 12:40:25;;;;;;;23.30;13.68;;;16.00;66.60;;;;;;5117576;28;20042;-84
2022/03/10 12:42:51;;;;;;;24.10;13.45;;;16.30;65.50;;;;;;5117689;28;20098;-84
2022/03/10 12:45:21;;;;;;;22.35;14.07;;;16.40;67.30;;;;;;5118629;28;20039;-83
2022/03/10 12:47:58;;;;;;;21.15;13.55;;;16.50;65.20;;;;;;5117306;28;20547;-83
2022/03/10 12:50:24;;;;;;;25.38;13.90;;;16.50;63.90;;;;;;5118310;28;20500;-83
2022/03/10 12:52:50;;;;;;;23.13;13.50;;;16.60;64.50;;;;;;5118597;28;20035;-83